Time;durP1;ratioP1;P1;durP2;ratioP2;P2;SDS_P1;SDS_P2;PMS_P1;PMS_P2;Temp;Humidity;BMP_temperature;BMP_pressure;BME280_temperature;BME280_humidity;BME280_pressure;Samples;Min_cycle;Max_cycle;Signal;HPM_P1;HPM_P2
2023/11/07 00:02:23;;;;;;;17.88;11.25;;;8.40;99.90;;;;;;5069428;28;20326;-75
2023/11/07 00:04:52;;;;;;;16.35;10.05;;;8.40;99.90;;;;;;5059235;28;20040;-76
2023/11/07 00:07:18;;;;;;;20.95;12.38;;;8.40;99.90;;;;;;5060093;28;20058;-76
2023/11/07 00:09:44;;;;;;;23.33;12.43;;;8.40;99.90;;;;;;5076728;28;20364;-76
2023/11/07 00:12:10;;;;;;;17.88;12.30;;;8.40;99.90;;;;;;5077763;28;20039;-76
2023/11/07 00:14:36;;;;;;;18.23;12.68;;;8.40;99.90;;;;;;5075434;28;20500;-76
2023/11/07 00:17:02;;;;;;;18.13;12.32;;;8.50;99.90;;;;;;5082800;28;20036;-75
2023/11/07 00:19:28;;;;;;;17.02;12.45;;;8.50;99.90;;;;;;5067709;28;20135;-75
2023/11/07 00:21:54;;;;;;;19.35;13.40;;;8.50;99.90;;;;;;5075376;28;20131;-75
2023/11/07 00:24:20;;;;;;;20.30;13.35;;;8.50;99.90;;;;;;5081055;28;20422;-75
2023/11/07 00:26:46;;;;;;;18.73;13.38;;;8.50;99.90;;;;;;5066692;28;20044;-75
2023/11/07 00:29:12;;;;;;;16.30;13.43;;;8.60;99.90;;;;;;5065801;28;20043;-75
2023/11/07 00:31:38;;;;;;;18.23;13.85;;;8.60;99.90;;;;;;5083093;28;20044;-74
2023/11/07 00:34:05;;;;;;;23.40;14.48;;;8.60;99.90;;;;;;5090730;28;20036;-77
2023/11/07 00:36:32;;;;;;;20.50;14.90;;;8.60;99.90;;;;;;5080410;28;20055;-75
2023/11/07 00:38:59;;;;;;;29.52;17.58;;;8.60;99.90;;;;;;5078711;28;20488;-75
2023/11/07 00:41:25;;;;;;;22.60;14.68;;;8.60;99.90;;;;;;5066559;28;20044;-75
2023/11/07 00:43:51;;;;;;;23.15;15.13;;;8.60;99.90;;;;;;5067059;28;20044;-75
2023/11/07 00:46:18;;;;;;;22.30;16.13;;;8.60;99.90;;;;;;5062772;28;20064;-74
2023/11/07 00:48:44;;;;;;;24.27;16.33;;;8.60;99.90;;;;;;5083918;28;20051;-75
2023/11/07 00:51:11;;;;;;;22.23;16.90;;;8.70;99.90;;;;;;5067808;28;20044;-75
2023/11/07 00:53:38;;;;;;;26.30;18.20;;;8.70;99.90;;;;;;5065291;28;20042;-75
2023/11/07 00:56:05;;;;;;;26.45;20.15;;;8.70;99.90;;;;;;5066293;28;20047;-74
2023/11/07 00:58:31;;;;;;;21.75;18.45;;;8.70;99.90;;;;;;5064865;28;20101;-76
2023/11/07 01:00:57;;;;;;;25.20;18.92;;;8.80;99.90;;;;;;5079716;28;20457;-75
2023/11/07 01:03:23;;;;;;;21.27;17.98;;;8.80;99.90;;;;;;5065711;28;20139;-76
2023/11/07 01:05:49;;;;;;;28.27;19.10;;;8.80;99.90;;;;;;5063464;28;20132;-76
2023/11/07 01:08:15;;;;;;;26.10;18.90;;;8.80;99.90;;;;;;5067376;28;20032;-75
2023/11/07 01:10:40;;;;;;;27.42;20.70;;;8.80;99.90;;;;;;5082807;28;20039;-75
2023/11/07 01:13:07;;;;;;;25.13;20.25;;;8.90;99.90;;;;;;5076948;28;20048;-76
2023/11/07 01:15:33;;;;;;;24.70;19.67;;;8.90;99.90;;;;;;5080978;28;20543;-76
2023/11/07 01:17:59;;;;;;;21.02;17.73;;;8.90;99.90;;;;;;5065726;28;20498;-75
2023/11/07 01:20:25;;;;;;;22.90;18.67;;;8.90;99.90;;;;;;5063807;28;20058;-74
2023/11/07 01:22:50;;;;;;;22.90;19.25;;;8.90;99.90;;;;;;5084033;28;20394;-76
2023/11/07 01:25:16;;;;;;;23.45;18.05;;;8.90;99.90;;;;;;5077821;28;20124;-75
2023/11/07 01:27:42;;;;;;;25.15;18.77;;;8.90;99.90;;;;;;5081601;28;20039;-75
2023/11/07 01:30:09;;;;;;;21.95;16.50;;;8.90;99.90;;;;;;5069816;28;20124;-75
2023/11/07 01:32:39;;;;;;;23.23;18.05;;;8.90;99.90;;;;;;5066255;28;20106;-73
2023/11/07 01:35:05;;;;;;;21.55;16.10;;;8.90;99.90;;;;;;5082965;28;20043;-76
2023/11/07 01:37:30;;;;;;;23.75;17.23;;;8.90;99.90;;;;;;5065606;28;20047;-76
2023/11/07 01:39:57;;;;;;;21.92;15.85;;;8.90;99.90;;;;;;5080374;28;20032;-76
2023/11/07 01:42:22;;;;;;;21.23;16.00;;;8.90;99.90;;;;;;5079242;28;20043;-76
2023/11/07 01:44:50;;;;;;;19.77;14.27;;;8.90;99.90;;;;;;5084483;28;20050;-76
2023/11/07 01:47:18;;;;;;;21.00;14.75;;;8.90;99.90;;;;;;5076664;28;20032;-76
2023/11/07 01:49:48;;;;;;;16.83;12.95;;;8.90;99.90;;;;;;5095891;28;20067;-76
2023/11/07 01:52:17;;;;;;;19.15;13.45;;;8.80;99.90;;;;;;5081591;28;20047;-76
2023/11/07 01:54:46;;;;;;;20.25;13.43;;;8.90;99.90;;;;;;5082147;28;20444;-76
2023/11/07 01:57:13;;;;;;;17.57;12.30;;;8.80;99.90;;;;;;5083244;28;20066;-76
2023/11/07 01:59:39;;;;;;;18.10;12.35;;;8.80;99.90;;;;;;5078505;28;20130;-76
2023/11/07 02:02:10;;;;;;;19.15;12.15;;;8.80;99.90;;;;;;5068296;28;20486;-76
2023/11/07 02:04:35;;;;;;;;;;;8.80;99.90;;;;;;5058792;28;20049;-76
2023/11/07 02:07:01;;;;;;;18.02;11.75;;;8.70;99.90;;;;;;5080666;28;20229;-76
2023/11/07 02:09:27;;;;;;;20.27;12.48;;;8.70;99.90;;;;;;5066755;28;20047;-76
2023/11/07 02:11:53;;;;;;;14.68;10.80;;;8.70;99.90;;;;;;5077378;28;20380;-76
2023/11/07 02:14:28;;;;;;;17.13;11.32;;;8.70;99.90;;;;;;5067159;28;20059;-76
2023/11/07 02:16:54;;;;;;;15.88;10.88;;;8.60;99.90;;;;;;5064176;28;20041;-74
2023/11/07 02:19:20;;;;;;;13.95;10.38;;;8.60;99.90;;;;;;5077763;28;20509;-74
2023/11/07 02:21:46;;;;;;;17.05;11.27;;;8.60;99.90;;;;;;5071627;28;20541;-74
2023/11/07 02:24:12;;;;;;;16.55;11.18;;;8.60;99.90;;;;;;5081504;28;20259;-74
2023/11/07 02:26:38;;;;;;;18.58;10.77;;;8.60;99.90;;;;;;5071648;28;20258;-75
2023/11/07 02:29:06;;;;;;;18.42;11.73;;;8.60;99.90;;;;;;5066689;28;20398;-75
2023/11/07 02:31:32;;;;;;;16.15;11.13;;;8.60;99.90;;;;;;5080444;28;20462;-75
2023/11/07 02:33:58;;;;;;;16.67;10.68;;;8.60;99.90;;;;;;5060775;28;20079;-75
2023/11/07 02:36:24;;;;;;;18.85;10.90;;;8.50;99.90;;;;;;5085223;28;20519;-74
2023/11/07 02:38:49;;;;;;;14.98;9.80;;;8.60;99.90;;;;;;5062624;28;20048;-74
2023/11/07 02:41:15;;;;;;;18.98;9.95;;;8.60;99.90;;;;;;5063193;28;20114;-74
2023/11/07 02:43:41;;;;;;;16.88;9.40;;;8.60;99.90;;;;;;5080300;28;20047;-74
2023/11/07 02:46:07;;;;;;;15.68;10.15;;;8.60;99.90;;;;;;5078794;28;20047;-75
2023/11/07 02:48:33;;;;;;;19.08;11.55;;;8.60;99.90;;;;;;5068077;28;20131;-75
2023/11/07 02:51:01;;;;;;;15.48;9.77;;;8.60;99.90;;;;;;5061832;28;20036;-74
2023/11/07 02:53:27;;;;;;;15.82;10.23;;;8.60;99.90;;;;;;5098655;28;20044;-74
2023/11/07 02:55:53;;;;;;;14.43;8.75;;;8.60;99.90;;;;;;5076084;28;20074;-75
2023/11/07 02:58:19;;;;;;;16.90;9.82;;;8.60;99.90;;;;;;5066192;28;20055;-75
2023/11/07 03:00:45;;;;;;;17.70;9.68;;;8.60;99.90;;;;;;5063441;28;20076;-75
2023/11/07 03:03:10;;;;;;;15.38;9.45;;;8.60;99.90;;;;;;5093193;28;20421;-75
2023/11/07 03:05:36;;;;;;;14.07;9.23;;;8.60;99.90;;;;;;5076753;28;20410;-81
2023/11/07 03:08:03;;;;;;;16.33;8.65;;;8.50;99.90;;;;;;5064669;28;20028;-80
2023/11/07 03:10:29;;;;;;;15.25;8.95;;;8.60;99.90;;;;;;5068581;28;20115;-81
2023/11/07 03:12:55;;;;;;;12.82;7.65;;;8.50;99.90;;;;;;5068307;28;20055;-74
2023/11/07 03:15:20;;;;;;;12.75;8.40;;;8.50;99.90;;;;;;5096445;28;20052;-74
2023/11/07 03:17:46;;;;;;;13.40;8.48;;;8.40;99.90;;;;;;5076236;28;20036;-75
2023/11/07 03:20:12;;;;;;;13.93;8.50;;;8.50;99.90;;;;;;5063848;28;20449;-75
2023/11/07 03:22:38;;;;;;;11.93;8.00;;;8.50;99.90;;;;;;5074827;28;20044;-75
2023/11/07 03:25:04;;;;;;;14.80;8.35;;;8.40;99.90;;;;;;5091794;28;20036;-75
2023/11/07 03:27:31;;;;;;;16.67;8.95;;;8.40;99.90;;;;;;5079565;28;20060;-75
2023/11/07 03:29:56;;;;;;;16.35;8.13;;;8.40;99.90;;;;;;5076041;28;20123;-75
2023/11/07 03:32:22;;;;;;;14.82;7.78;;;8.40;99.90;;;;;;5077532;28;20738;-75
2023/11/07 03:34:49;;;;;;;16.88;7.63;;;8.40;99.90;;;;;;5080612;28;20394;-74
2023/11/07 03:37:15;;;;;;;13.05;7.60;;;8.40;99.90;;;;;;5071380;28;20040;-74
2023/11/07 03:39:41;;;;;;;11.68;7.50;;;8.40;99.90;;;;;;5055043;28;20048;-75
2023/11/07 03:42:07;;;;;;;17.45;9.13;;;8.40;99.90;;;;;;5069578;28;20534;-74
2023/11/07 03:44:34;;;;;;;14.57;8.38;;;8.40;99.90;;;;;;5078403;28;20123;-75
2023/11/07 03:47:00;;;;;;;14.50;8.23;;;8.40;99.90;;;;;;5076003;28;20386;-75
2023/11/07 03:49:26;;;;;;;15.48;9.27;;;8.30;99.90;;;;;;5105162;28;20048;-75
2023/11/07 03:51:52;;;;;;;16.40;8.40;;;8.40;99.90;;;;;;5061131;28;20127;-74
2023/11/07 03:54:18;;;;;;;16.10;8.25;;;8.40;99.90;;;;;;5084312;28;20039;-74
2023/11/07 03:56:47;;;;;;;14.48;8.52;;;8.40;99.90;;;;;;5073010;28;20049;-74
2023/11/07 03:59:13;;;;;;;16.90;8.60;;;8.40;99.90;;;;;;5097980;28;20039;-74
2023/11/07 04:01:39;;;;;;;17.42;8.73;;;8.40;99.90;;;;;;5094603;28;20055;-73
2023/11/07 04:04:06;;;;;;;17.65;8.98;;;8.40;99.90;;;;;;5082972;28;20044;-73
2023/11/07 04:06:32;;;;;;;14.15;7.82;;;8.30;99.90;;;;;;5080650;28;20048;-73
2023/11/07 04:08:58;;;;;;;16.10;8.30;;;8.30;99.90;;;;;;5081540;28;20048;-73
2023/11/07 04:11:24;;;;;;;18.00;8.93;;;8.40;99.90;;;;;;5055242;28;20095;-74
2023/11/07 04:13:53;;;;;;;14.88;8.98;;;8.40;99.90;;;;;;5071174;28;20051;-80
2023/11/07 04:16:19;;;;;;;18.70;10.20;;;8.40;99.90;;;;;;5071409;28;20366;-80
2023/11/07 04:18:45;;;;;;;14.98;8.80;;;8.40;99.90;;;;;;5064801;28;20040;-81
2023/11/07 04:21:11;;;;;;;17.90;9.38;;;8.40;99.90;;;;;;5077338;28;20044;-81
2023/11/07 04:23:37;;;;;;;19.15;9.70;;;8.40;99.90;;;;;;5083929;28;20461;-81
2023/11/07 04:26:03;;;;;;;17.35;10.05;;;8.40;99.90;;;;;;5080415;28;20483;-81
2023/11/07 04:28:31;;;;;;;14.45;8.57;;;8.40;99.90;;;;;;5070207;28;20059;-81
2023/11/07 04:30:56;;;;;;;16.73;9.32;;;8.40;99.90;;;;;;5079767;28;20131;-81
2023/11/07 04:33:22;;;;;;;20.10;10.40;;;8.40;99.90;;;;;;5079695;28;20431;-82
2023/11/07 04:35:48;;;;;;;16.67;10.15;;;8.50;99.90;;;;;;5083866;28;20405;-80
2023/11/07 04:38:14;;;;;;;17.83;10.35;;;8.40;99.90;;;;;;5078168;28;20040;-81
2023/11/07 04:40:42;;;;;;;14.70;9.18;;;8.40;99.90;;;;;;5068735;28;20051;-81
2023/11/07 04:43:08;;;;;;;15.15;9.40;;;8.50;99.90;;;;;;5073624;28;20040;-81
2023/11/07 04:45:37;;;;;;;19.52;9.70;;;8.50;99.90;;;;;;5075947;28;20052;-80
2023/11/07 04:48:03;;;;;;;17.00;9.15;;;8.50;99.90;;;;;;5069527;28;20043;-83
2023/11/07 04:50:29;;;;;;;14.50;9.18;;;8.50;99.90;;;;;;5099069;28;20213;-82
2023/11/07 04:52:55;;;;;;;18.17;10.07;;;8.50;99.90;;;;;;5071085;28;20375;-82
2023/11/07 04:55:22;;;;;;;14.63;9.52;;;8.50;99.90;;;;;;5069725;28;20032;-82
2023/11/07 04:57:49;;;;;;;14.75;9.20;;;8.50;99.90;;;;;;5075691;28;20507;-81
2023/11/07 05:00:16;;;;;;;16.95;9.40;;;8.50;99.90;;;;;;5073085;28;20040;-81
2023/11/07 05:02:42;;;;;;;16.10;9.07;;;8.50;99.90;;;;;;5081554;28;20047;-80
2023/11/07 05:05:09;;;;;;;19.00;10.10;;;8.60;99.90;;;;;;5072574;28;20402;-80
2023/11/07 05:07:35;;;;;;;15.75;8.77;;;8.50;99.90;;;;;;5084779;28;20037;-81
2023/11/07 05:10:03;;;;;;;14.43;8.55;;;8.50;99.90;;;;;;5064362;28;20067;-74
2023/11/07 05:12:30;;;;;;;14.57;8.70;;;8.50;99.90;;;;;;5082908;28;20054;-74
2023/11/07 05:14:57;;;;;;;12.98;8.02;;;8.50;99.90;;;;;;5083920;28;20113;-74
2023/11/07 05:17:23;;;;;;;14.95;7.30;;;8.30;99.90;;;;;;5068889;28;20073;-74
2023/11/07 05:19:49;;;;;;;13.65;7.90;;;8.50;99.90;;;;;;5067355;28;20564;-74
2023/11/07 05:22:14;;;;;;;14.85;7.57;;;8.50;99.90;;;;;;5096620;28;20135;-75
2023/11/07 05:24:40;;;;;;;12.43;7.45;;;8.50;99.90;;;;;;5069032;28;20048;-74
2023/11/07 05:27:06;;;;;;;15.00;7.57;;;8.40;99.90;;;;;;5062968;28;20461;-74
2023/11/07 05:29:32;;;;;;;15.48;8.35;;;8.40;99.90;;;;;;5082233;28;20048;-74
2023/11/07 05:31:58;;;;;;;14.70;8.07;;;8.40;99.90;;;;;;5067062;28;20113;-74
2023/11/07 05:34:24;;;;;;;16.50;8.10;;;8.40;99.90;;;;;;5080136;28;20131;-74
2023/11/07 05:36:51;;;;;;;13.00;8.00;;;8.40;99.90;;;;;;5067009;28;20071;-74
2023/11/07 05:39:17;;;;;;;15.05;7.38;;;8.40;99.90;;;;;;5083586;28;20040;-74
2023/11/07 05:41:43;;;;;;;11.10;7.10;;;8.40;99.90;;;;;;5066464;28;20109;-74
2023/11/07 05:44:09;;;;;;;14.77;7.75;;;8.40;99.90;;;;;;5066956;28;20036;-75
2023/11/07 05:46:35;;;;;;;15.27;8.40;;;8.30;99.90;;;;;;5066822;28;20071;-74
2023/11/07 05:49:00;;;;;;;16.85;8.10;;;8.30;99.90;;;;;;5081089;28;20067;-74
2023/11/07 05:51:26;;;;;;;12.27;7.60;;;8.30;99.90;;;;;;5081677;28;20514;-74
2023/11/07 05:53:52;;;;;;;13.57;8.70;;;8.30;99.90;;;;;;5097721;28;20040;-74
2023/11/07 05:56:19;;;;;;;14.45;7.82;;;8.30;99.90;;;;;;5060573;28;20491;-74
2023/11/07 05:58:46;;;;;;;16.33;8.38;;;8.30;99.90;;;;;;5082425;28;20093;-74
2023/11/07 06:01:12;;;;;;;11.40;7.63;;;8.30;99.90;;;;;;5079186;28;20040;-75
2023/11/07 06:03:38;;;;;;;10.73;7.72;;;8.30;99.90;;;;;;5080196;28;20040;-74
2023/11/07 06:06:04;;;;;;;14.00;8.18;;;8.30;99.90;;;;;;5065473;28;20040;-74
2023/11/07 06:08:29;;;;;;;14.73;8.70;;;8.20;99.90;;;;;;5079806;28;20104;-74
2023/11/07 06:10:55;;;;;;;16.88;8.27;;;8.20;99.90;;;;;;5080629;28;20044;-75
2023/11/07 06:13:21;;;;;;;13.13;8.20;;;8.20;99.90;;;;;;5065683;28;20044;-74
2023/11/07 06:15:47;;;;;;;16.13;8.35;;;8.20;99.90;;;;;;5074838;28;20040;-74
2023/11/07 06:18:13;;;;;;;11.90;7.88;;;8.10;99.90;;;;;;5064970;28;20526;-74
2023/11/07 06:20:39;;;;;;;15.07;9.52;;;8.20;99.90;;;;;;5097947;28;20566;-74
2023/11/07 06:23:05;;;;;;;15.77;8.82;;;8.10;99.90;;;;;;5081708;28;20166;-75
2023/11/07 06:25:31;;;;;;;12.18;8.20;;;8.10;99.90;;;;;;5080719;28;20048;-74
2023/11/07 06:27:58;;;;;;;11.57;8.13;;;8.20;99.90;;;;;;5078221;28;20036;-74
2023/11/07 06:30:28;;;;;;;16.02;8.25;;;8.10;99.90;;;;;;5082115;28;20093;-74
2023/11/07 06:32:56;;;;;;;14.55;9.20;;;8.10;99.90;;;;;;5062687;28;20036;-75
2023/11/07 06:35:22;;;;;;;15.88;8.52;;;8.10;99.90;;;;;;5078105;28;20051;-75
2023/11/07 06:37:48;;;;;;;12.18;7.88;;;8.10;99.90;;;;;;5064762;28;20044;-76
2023/11/07 06:40:16;;;;;;;13.93;8.93;;;8.10;99.90;;;;;;5059810;28;20039;-75
2023/11/07 06:42:43;;;;;;;15.13;8.90;;;8.10;99.90;;;;;;5078900;28;20044;-75
2023/11/07 06:45:12;;;;;;;13.90;7.70;;;8.10;99.90;;;;;;5062561;28;20129;-75
2023/11/07 06:47:42;;;;;;;13.65;7.70;;;8.10;99.90;;;;;;5063748;28;20107;-75
2023/11/07 06:50:10;;;;;;;15.25;8.38;;;8.10;99.90;;;;;;5074713;28;20036;-75
2023/11/07 06:52:40;;;;;;;11.90;7.88;;;8.10;99.90;;;;;;5082753;28;20032;-74
2023/11/07 06:55:09;;;;;;;14.65;8.50;;;8.10;99.90;;;;;;5077562;28;20060;-75
2023/11/07 06:57:35;;;;;;;15.60;8.35;;;8.10;99.90;;;;;;5080535;28;20509;-75
2023/11/07 07:00:05;;;;;;;16.65;8.18;;;8.10;99.90;;;;;;5082240;28;20544;-75
2023/11/07 07:02:33;;;;;;;15.68;7.97;;;8.10;99.90;;;;;;5076776;28;20451;-75
2023/11/07 07:04:59;;;;;;;17.77;8.60;;;8.10;99.90;;;;;;5066777;28;20048;-75
2023/11/07 07:07:25;;;;;;;16.38;7.47;;;8.10;99.90;;;;;;5081287;28;20475;-75
2023/11/07 07:09:51;;;;;;;14.10;7.75;;;8.10;99.90;;;;;;5080337;28;20040;-75
2023/11/07 07:12:17;;;;;;;17.00;8.45;;;8.10;99.90;;;;;;5095960;28;20097;-74
2023/11/07 07:14:43;;;;;;;12.32;7.78;;;8.00;99.90;;;;;;5065376;28;20048;-75
2023/11/07 07:17:08;;;;;;;14.60;8.00;;;8.00;99.90;;;;;;5079590;28;20445;-82
2023/11/07 07:19:37;;;;;;;13.43;7.75;;;8.10;99.90;;;;;;5083063;28;20052;-82
2023/11/07 07:22:06;;;;;;;13.45;8.02;;;8.10;99.90;;;;;;5066287;28;20125;-80
2023/11/07 07:24:32;;;;;;;13.15;8.10;;;8.10;99.90;;;;;;5078577;28;21395;-82
2023/11/07 07:26:58;;;;;;;15.43;9.45;;;8.10;99.90;;;;;;5067120;28;20044;-80
2023/11/07 07:29:27;;;;;;;12.30;7.60;;;8.10;99.90;;;;;;5087142;28;20060;-81
2023/11/07 07:31:53;;;;;;;12.02;7.63;;;8.10;99.90;;;;;;5085748;28;20494;-81
2023/11/07 07:34:20;;;;;;;15.48;7.95;;;8.10;99.90;;;;;;5082498;28;20093;-81
2023/11/07 07:36:47;;;;;;;13.98;7.85;;;8.10;99.90;;;;;;5080453;28;20044;-82
2023/11/07 07:39:28;;;;;;;13.30;7.82;;;8.10;99.90;;;;;;5082592;28;20466;-80
2023/11/07 07:41:55;;;;;;;14.32;8.75;;;8.10;99.90;;;;;;5083256;28;20112;-82
2023/11/07 07:44:24;;;;;;;13.75;7.78;;;8.10;99.90;;;;;;5070647;28;20090;-80
2023/11/07 07:46:51;;;;;;;14.18;7.50;;;8.10;99.90;;;;;;5068083;28;20475;-81
2023/11/07 07:49:22;;;;;;;11.98;6.97;;;8.10;99.90;;;;;;5080898;28;20073;-81
2023/11/07 07:51:52;;;;;;;11.35;7.25;;;8.20;99.90;;;;;;5102524;28;20055;-81
2023/11/07 07:54:22;;;;;;;11.55;7.57;;;8.20;99.90;;;;;;5084159;28;20059;-81
2023/11/07 07:56:48;;;;;;;;;;;8.20;99.90;;;;;;5082189;28;20036;-81
2023/11/07 07:59:14;;;;;;;12.02;7.75;;;8.20;99.90;;;;;;5068370;28;19924;-79
2023/11/07 08:01:40;;;;;;;14.82;8.25;;;8.20;99.90;;;;;;5086503;28;20131;-80
2023/11/07 08:04:06;;;;;;;13.48;8.23;;;8.20;99.90;;;;;;5082407;28;20051;-81
2023/11/07 08:06:32;;;;;;;12.93;8.15;;;8.20;99.90;;;;;;5085272;28;20048;-80
2023/11/07 08:08:59;;;;;;;11.82;7.57;;;8.30;99.90;;;;;;5081180;28;20422;-82
2023/11/07 08:11:25;;;;;;;12.93;8.73;;;8.30;99.90;;;;;;5080553;28;20105;-81
2023/11/07 08:13:52;;;;;;;12.13;8.30;;;8.30;99.90;;;;;;5083480;28;20097;-81
2023/11/07 08:16:19;;;;;;;12.15;8.00;;;8.30;99.90;;;;;;5086657;28;20131;-80
2023/11/07 08:18:46;;;;;;;11.52;8.00;;;8.30;99.90;;;;;;5081596;28;20135;-81
2023/11/07 08:21:12;;;;;;;16.02;8.90;;;8.40;99.90;;;;;;5069236;28;20046;-80
2023/11/07 08:23:38;;;;;;;11.73;8.38;;;8.40;99.90;;;;;;5086972;28;20052;-80
2023/11/07 08:26:04;;;;;;;14.38;8.10;;;8.40;99.90;;;;;;5065190;28;20390;-82
2023/11/07 08:28:30;;;;;;;13.18;9.00;;;8.50;99.90;;;;;;5084937;28;20553;-82
2023/11/07 08:30:57;;;;;;;11.93;8.02;;;8.50;99.90;;;;;;5084304;28;20131;-82
2023/11/07 08:33:22;;;;;;;14.90;8.77;;;8.50;99.90;;;;;;5068885;28;20161;-81
2023/11/07 08:35:50;;;;;;;11.75;8.27;;;8.60;99.90;;;;;;5066088;28;20056;-83
2023/11/07 08:38:16;;;;;;;12.15;8.23;;;8.60;99.90;;;;;;5083739;28;20048;-82
2023/11/07 08:40:42;;;;;;;11.38;7.90;;;8.60;99.90;;;;;;5080426;28;20143;-82
2023/11/07 08:43:09;;;;;;;11.75;8.15;;;8.60;99.90;;;;;;5066218;28;20147;-75
2023/11/07 08:45:35;;;;;;;12.93;8.82;;;8.60;99.90;;;;;;5084704;28;20055;-75
2023/11/07 08:48:01;;;;;;;13.32;8.05;;;8.60;99.90;;;;;;5081640;28;20082;-75
2023/11/07 08:50:26;;;;;;;14.23;8.80;;;8.70;99.90;;;;;;5082367;28;20103;-75
2023/11/07 08:52:53;;;;;;;14.80;9.07;;;8.70;99.90;;;;;;5086287;28;20032;-75
2023/11/07 08:55:19;;;;;;;11.93;8.93;;;8.70;99.90;;;;;;5083300;28;20437;-75
2023/11/07 08:57:46;;;;;;;12.82;9.40;;;8.70;99.90;;;;;;5079484;28;20588;-75
2023/11/07 09:00:21;;;;;;;12.50;8.40;;;8.80;99.90;;;;;;5085317;28;20044;-75
2023/11/07 09:02:50;;;;;;;12.35;9.32;;;8.80;99.90;;;;;;5080715;28;20509;-75
2023/11/07 09:05:17;;;;;;;14.35;10.00;;;8.80;99.90;;;;;;5079744;28;20039;-75
2023/11/07 09:07:43;;;;;;;13.13;8.70;;;8.80;99.90;;;;;;5082661;28;20075;-75
2023/11/07 09:10:11;;;;;;;12.45;9.63;;;8.80;99.90;;;;;;5067615;28;20039;-74
2023/11/07 09:12:37;;;;;;;10.93;8.85;;;8.80;99.90;;;;;;5080010;28;20040;-75
2023/11/07 09:15:07;;;;;;;11.05;9.10;;;8.80;99.90;;;;;;5064309;28;20525;-75
2023/11/07 09:17:34;;;;;;;11.95;8.93;;;8.90;99.90;;;;;;5084953;28;20042;-74
2023/11/07 09:20:20;;;;;;;11.02;9.10;;;9.00;99.90;;;;;;5080504;28;20514;-75
2023/11/07 09:22:46;;;;;;;11.82;9.20;;;9.00;99.90;;;;;;5081042;28;20048;-74
2023/11/07 09:25:12;;;;;;;12.32;9.32;;;9.10;99.90;;;;;;5081770;28;20039;-73
2023/11/07 09:27:38;;;;;;;12.48;9.90;;;9.10;99.90;;;;;;5097346;27;20048;-75
2023/11/07 09:30:08;;;;;;;13.35;9.55;;;9.20;99.90;;;;;;5061657;28;20127;-73
2023/11/07 09:32:35;;;;;;;12.68;10.05;;;9.30;99.90;;;;;;5065640;28;20457;-74
2023/11/07 09:35:03;;;;;;;13.70;10.55;;;9.30;99.90;;;;;;5065171;28;20044;-73
2023/11/07 09:37:29;;;;;;;13.73;10.65;;;9.30;99.90;;;;;;5077564;28;20078;-73
2023/11/07 09:39:55;;;;;;;14.00;10.40;;;9.30;99.90;;;;;;5079915;28;20044;-73
2023/11/07 09:42:20;;;;;;;14.85;12.15;;;9.30;99.90;;;;;;5065936;28;20036;-73
2023/11/07 09:44:48;;;;;;;12.55;11.13;;;9.30;99.90;;;;;;5083450;28;20968;-74
2023/11/07 09:47:14;;;;;;;15.75;11.23;;;9.30;99.90;;;;;;5081238;28;20143;-74
2023/11/07 09:49:41;;;;;;;14.27;11.20;;;9.30;99.90;;;;;;5063894;28;20541;-73
2023/11/07 09:52:07;;;;;;;15.68;11.13;;;9.40;99.90;;;;;;5066425;28;20040;-74
2023/11/07 09:54:34;;;;;;;14.02;11.05;;;9.30;99.90;;;;;;5063330;28;20342;-74
2023/11/07 09:57:08;;;;;;;12.25;10.25;;;9.40;99.90;;;;;;5068345;28;20050;-74
2023/11/07 09:59:40;;;;;;;12.80;11.52;;;9.40;99.90;;;;;;5068863;28;20045;-74
2023/11/07 10:02:07;;;;;;;13.30;11.15;;;9.50;99.90;;;;;;5066323;28;20040;-74
2023/11/07 10:04:34;;;;;;;12.18;10.95;;;9.50;99.90;;;;;;5080501;28;20055;-74
2023/11/07 10:07:00;;;;;;;11.75;10.52;;;9.70;99.90;;;;;;5082213;28;20036;-73
2023/11/07 10:09:26;;;;;;;13.73;10.48;;;9.70;99.90;;;;;;5082940;28;20567;-74
2023/11/07 10:11:53;;;;;;;12.88;10.52;;;9.80;99.90;;;;;;5064146;28;20079;-73
2023/11/07 10:14:20;;;;;;;10.52;9.25;;;10.00;99.90;;;;;;5100725;27;20044;-73
2023/11/07 10:16:53;;;;;;;13.13;10.00;;;10.00;99.90;;;;;;5076586;28;20408;-73
2023/11/07 10:19:21;;;;;;;11.23;9.90;;;10.10;99.90;;;;;;5068906;28;20051;-73
2023/11/07 10:21:47;;;;;;;10.15;8.35;;;10.20;99.90;;;;;;5076939;28;21390;-73
2023/11/07 10:24:13;;;;;;;13.73;9.25;;;10.20;99.90;;;;;;5068601;28;20476;-73
2023/11/07 10:27:00;;;;;;;10.20;9.13;;;10.20;99.90;;;;;;5081595;28;20498;-74
2023/11/07 10:29:27;;;;;;;12.18;8.98;;;10.30;99.90;;;;;;5082880;28;20052;-73
2023/11/07 10:32:04;;;;;;;11.40;9.30;;;10.30;99.90;;;;;;5080499;28;20066;-73
2023/11/07 10:34:30;;;;;;;10.85;8.93;;;10.30;99.90;;;;;;5077808;28;20143;-73
2023/11/07 10:36:59;;;;;;;10.70;9.15;;;10.30;99.90;;;;;;5065635;28;20048;-73
2023/11/07 10:39:26;;;;;;;10.15;9.00;;;10.20;99.90;;;;;;5063534;28;20039;-73
2023/11/07 10:41:56;;;;;;;10.60;8.18;;;10.20;99.90;;;;;;5083413;28;20052;-73
2023/11/07 10:44:25;;;;;;;11.40;7.78;;;10.20;99.90;;;;;;5094390;28;20123;-73
2023/11/07 10:46:57;;;;;;;10.25;8.65;;;10.20;99.90;;;;;;5066086;28;20043;-73
2023/11/07 10:49:24;;;;;;;10.05;8.63;;;10.30;99.90;;;;;;5064955;28;20047;-73
2023/11/07 10:51:50;;;;;;;11.05;8.77;;;10.30;99.90;;;;;;5067824;28;20051;-73
2023/11/07 10:54:20;;;;;;;11.38;8.10;;;10.40;99.90;;;;;;5066211;28;20113;-73
2023/11/07 10:56:50;;;;;;;9.00;7.82;;;10.40;99.90;;;;;;5079269;28;20388;-73
2023/11/07 10:59:21;;;;;;;11.15;8.02;;;10.40;99.90;;;;;;5067594;28;20048;-73
2023/11/07 11:01:51;;;;;;;9.63;8.63;;;10.50;99.90;;;;;;5080942;28;20127;-73
2023/11/07 11:04:26;;;;;;;9.45;8.32;;;10.50;99.90;;;;;;5068108;28;20071;-74
2023/11/07 11:06:52;;;;;;;10.88;8.80;;;10.50;99.90;;;;;;5078799;28;20040;-73
2023/11/07 11:09:20;;;;;;;11.45;8.60;;;10.50;99.90;;;;;;5078930;28;20040;-72
2023/11/07 11:11:51;;;;;;;10.55;8.48;;;10.50;99.90;;;;;;5065203;28;20391;-73
2023/11/07 11:14:18;;;;;;;10.50;8.80;;;10.50;99.90;;;;;;5082973;28;20431;-72
2023/11/07 11:16:46;;;;;;;9.85;8.50;;;10.50;99.90;;;;;;5064722;28;20550;-73
2023/11/07 11:19:28;;;;;;;11.18;8.65;;;10.50;99.90;;;;;;5077805;28;20098;-73
2023/11/07 11:22:13;;;;;;;10.15;8.65;;;10.60;99.90;;;;;;5080197;28;20109;-73
2023/11/07 11:24:54;;;;;;;12.27;9.05;;;10.60;99.90;;;;;;5082980;28;20140;-73
2023/11/07 11:27:33;;;;;;;8.77;7.95;;;10.60;99.90;;;;;;5076245;28;20490;-73
2023/11/07 11:29:59;;;;;;;11.90;8.93;;;10.60;99.90;;;;;;5073418;28;20040;-73
2023/11/07 11:32:26;;;;;;;11.95;9.73;;;10.60;99.90;;;;;;5065300;28;20032;-72
2023/11/07 11:34:57;;;;;;;11.45;9.98;;;10.60;99.90;;;;;;5077378;28;20058;-72
2023/11/07 11:37:25;;;;;;;10.70;9.00;;;10.70;99.90;;;;;;5078046;28;20568;-73
2023/11/07 11:39:52;;;;;;;9.77;8.77;;;10.70;99.90;;;;;;5083463;28;20126;-73
2023/11/07 11:42:18;;;;;;;10.57;9.07;;;10.70;99.90;;;;;;5079237;28;20044;-72
2023/11/07 11:44:43;;;;;;;11.95;9.25;;;10.70;99.90;;;;;;5069420;28;20376;-73
2023/11/07 11:47:48;;;;;;;10.07;8.63;;;10.70;99.90;;;;;;5071431;28;20039;-73
2023/11/07 11:50:14;;;;;;;10.88;8.88;;;10.70;99.90;;;;;;5080647;28;20433;-72
2023/11/07 11:52:40;;;;;;;12.27;8.45;;;10.70;99.90;;;;;;5078268;28;20041;-73
2023/11/07 11:55:10;;;;;;;12.02;8.40;;;10.70;99.90;;;;;;5091094;28;20134;-73
2023/11/07 11:58:15;;;;;;;9.70;8.00;;;10.70;99.90;;;;;;5062008;28;20044;-72
2023/11/07 12:00:44;;;;;;;9.57;8.55;;;10.70;99.90;;;;;;5089454;28;20113;-73
2023/11/07 12:03:18;;;;;;;8.57;6.93;;;10.70;99.90;;;;;;5071197;28;20390;-73
2023/11/07 12:06:06;;;;;;;9.45;7.82;;;10.80;99.90;;;;;;5064429;28;20052;-73
2023/11/07 12:08:42;;;;;;;8.75;7.60;;;10.80;99.90;;;;;;5057550;28;20053;-72
2023/11/07 12:11:12;;;;;;;8.80;7.60;;;10.80;99.90;;;;;;5061768;28;20491;-72
2023/11/07 12:13:38;;;;;;;11.05;7.28;;;10.80;99.90;;;;;;5095473;28;20063;-72
2023/11/07 12:16:19;;;;;;;13.23;7.88;;;10.80;99.90;;;;;;5073232;28;20047;-72
2023/11/07 12:18:48;;;;;;;10.63;7.60;;;10.70;99.90;;;;;;5056415;28;20348;-73
2023/11/07 12:21:24;;;;;;;11.88;7.57;;;10.70;99.90;;;;;;5057873;28;20741;-72
2023/11/07 12:23:52;;;;;;;11.65;7.65;;;10.70;99.90;;;;;;5080730;28;20059;-73
2023/11/07 12:26:18;;;;;;;9.20;7.43;;;10.60;99.90;;;;;;5074755;28;20074;-73
2023/11/07 12:28:44;;;;;;;11.85;7.25;;;10.60;99.90;;;;;;5080823;28;20079;-73
2023/11/07 12:31:10;;;;;;;11.85;7.97;;;10.50;99.90;;;;;;5067191;28;20051;-73
2023/11/07 12:33:41;;;;;;;12.95;8.82;;;10.50;99.90;;;;;;5083723;28;20538;-74
2023/11/07 12:36:12;;;;;;;11.27;9.18;;;10.50;99.90;;;;;;5060680;28;20403;-73
2023/11/07 12:38:39;;;;;;;12.88;9.65;;;10.40;99.90;;;;;;5089864;28;20214;-74
2023/11/07 12:41:06;;;;;;;10.55;9.05;;;10.40;99.90;;;;;;5087876;28;20052;-73
2023/11/07 12:43:42;;;;;;;11.27;10.18;;;10.40;99.90;;;;;;5070683;28;20044;-74
2023/11/07 12:46:14;;;;;;;14.18;9.73;;;10.40;99.90;;;;;;5075447;28;20399;-73